source: subversion/applications/editors/osm-editor/newforest_osm.gpx @ 34462

Last change on this file since 34462 was 664, checked in by nick, 14 years ago

Changed save/load to always 'OSM' mode; changed example GPX files

File size: 44.8 KB
Line 
1<!-- This data is copyright Nick Whitelegg and licenced under the
2     Creative Commons Licence (Attribution/ShareAlike) v2.0. -->
3<gpx version="1.0" creator="Hogweed Software Freemap::Components class" xmlns="http://www.topografix.com/GPX/1/0">
4<wpt lat="50.896" lon="-1.60613">
5<name>001</name>
6<type>waypoint</type>
7</wpt>
8<wpt lat="50.8975" lon="-1.60883">
9<name>002</name>
10<type>waypoint</type>
11</wpt>
12<wpt lat="50.896" lon="-1.61533">
13<name>003</name>
14<type>waypoint</type>
15</wpt>
16<wpt lat="50.8936" lon="-1.6135">
17<name>004</name>
18<type>waypoint</type>
19</wpt>
20<wpt lat="50.894" lon="-1.62137">
21<name>005</name>
22<type>waypoint</type>
23</wpt>
24<wpt lat="50.8908" lon="-1.61586">
25<name>006</name>
26<type>waypoint</type>
27</wpt>
28<wpt lat="50.8871" lon="-1.61917">
29<name>007</name>
30<type>waypoint</type>
31</wpt>
32<wpt lat="50.8858" lon="-1.62224">
33<name>008</name>
34<type>waypoint</type>
35</wpt>
36<wpt lat="50.8864" lon="-1.62669">
37<name>009</name>
38<type>waypoint</type>
39</wpt>
40<wpt lat="50.8953" lon="-1.63308">
41<name>010</name>
42<type>waypoint</type>
43</wpt>
44<wpt lat="50.8954" lon="-1.66004">
45<name>011</name>
46<type>tunnel</type>
47</wpt>
48<wpt lat="50.9022" lon="-1.6538">
49<name>012</name>
50<type>bridge</type>
51</wpt>
52<wpt lat="50.9051" lon="-1.646">
53<name>013</name>
54<type>waypoint</type>
55</wpt>
56<wpt lat="50.9069" lon="-1.62868">
57<name>015</name>
58<type>waypoint</type>
59</wpt>
60<wpt lat="50.9067" lon="-1.62016">
61<name>016</name>
62<type>tunnel</type>
63</wpt>
64<wpt lat="50.9024" lon="-1.61289">
65<name>017</name>
66<type>waypoint</type>
67</wpt>
68<wpt lat="50.8875" lon="-1.61834">
69<name>ACRDN</name>
70<type>restaurant</type>
71</wpt>
72<wpt lat="50.8864" lon="-1.62084">
73<name>ACRES DOWN</name>
74<type>car park</type>
75</wpt>
76<wpt lat="50.8884" lon="-1.61709">
77<name>FORD</name>
78<type>caution</type>
79</wpt>
80<wpt lat="50.8912" lon="-1.6513">
81<name>FORD2</name>
82<type>caution</type>
83</wpt>
84<wpt lat="50.8971" lon="-1.61454">
85<name>GROVE FM</name>
86<type>farm</type>
87</wpt>
88<wpt lat="50.8892" lon="-1.62879">
89<name>MEML SEAT</name>
90<type>waypoint</type>
91</wpt>
92<wpt lat="50.9058" lon="-1.64612">
93<name>OCKNELL</name>
94<type>campsite</type>
95</wpt>
96<wpt lat="50.8901" lon="-1.6167">
97<name>ROBINS Bush FM</name>
98<type>farm</type>
99</wpt>
100<wpt lat="50.8911" lon="-1.62987">
101<name>TRIG PT</name>
102<type>summit</type>
103</wpt>
104<wpt lat="50.8982" lon="-1.60112">
105<name>Trusty Servant</name>
106<type>pub</type>
107</wpt>
108<trk>
109<number>0</number>
110<extensions>
111</extensions>
112<trkseg>
113<trkpt lat="50.8982" lon="-1.60115">
114<time>1111237167</time>
115</trkpt>
116<trkpt lat="50.8982" lon="-1.60109">
117<time>1111237180</time>
118</trkpt>
119<trkpt lat="50.8981" lon="-1.60106">
120<time>1111237182</time>
121</trkpt>
122<trkpt lat="50.8978" lon="-1.60134">
123<time>1111237205</time>
124</trkpt>
125<trkpt lat="50.8975" lon="-1.60162">
126<time>1111237226</time>
127</trkpt>
128<trkpt lat="50.8973" lon="-1.60179">
129<time>1111237247</time>
130</trkpt>
131<trkpt lat="50.8972" lon="-1.60188">
132<time>1111237256</time>
133</trkpt>
134<trkpt lat="50.897" lon="-1.60218">
135<time>1111237287</time>
136</trkpt>
137<trkpt lat="50.8968" lon="-1.6022">
138<time>1111237318</time>
139</trkpt>
140<trkpt lat="50.8967" lon="-1.6022">
141<time>1111237346</time>
142</trkpt>
143<trkpt lat="50.8966" lon="-1.60261">
144<time>1111237420</time>
145</trkpt>
146<trkpt lat="50.8963" lon="-1.60297">
147<time>1111237443</time>
148</trkpt>
149<trkpt lat="50.896" lon="-1.60336">
150<time>1111237468</time>
151</trkpt>
152<trkpt lat="50.8958" lon="-1.60373">
153<time>1111237489</time>
154</trkpt>
155<trkpt lat="50.8957" lon="-1.60424">
156<time>1111237519</time>
157</trkpt>
158<trkpt lat="50.8959" lon="-1.6048">
159<time>1111237565</time>
160</trkpt>
161<trkpt lat="50.8959" lon="-1.60521">
162<time>1111237594</time>
163</trkpt>
164<trkpt lat="50.896" lon="-1.60587">
165<time>1111237632</time>
166</trkpt>
167<trkpt lat="50.8961" lon="-1.60621">
168<time>1111237656</time>
169</trkpt>
170<trkpt lat="50.8962" lon="-1.60634">
171<time>1111237667</time>
172</trkpt>
173<trkpt lat="50.8966" lon="-1.60658">
174<time>1111237709</time>
175</trkpt>
176<trkpt lat="50.8968" lon="-1.6081">
177<time>1111237747</time>
178</trkpt>
179<trkpt lat="50.897" lon="-1.60823">
180<time>1111237768</time>
181</trkpt>
182<trkpt lat="50.8973" lon="-1.60857">
183<time>1111237795</time>
184</trkpt>
185<trkpt lat="50.8975" lon="-1.60881">
186<time>1111237826</time>
187</trkpt>
188<trkpt lat="50.8974" lon="-1.60928">
189<time>1111237896</time>
190</trkpt>
191<trkpt lat="50.8971" lon="-1.61083">
192<time>1111237971</time>
193</trkpt>
194<trkpt lat="50.8967" lon="-1.61254">
195<time>1111238012</time>
196</trkpt>
197<trkpt lat="50.8968" lon="-1.61274">
198<time>1111238022</time>
199</trkpt>
200<trkpt lat="50.8968" lon="-1.61291">
201<time>1111238029</time>
202</trkpt>
203<trkpt lat="50.8969" lon="-1.61321">
204<time>1111238046</time>
205</trkpt>
206<trkpt lat="50.8969" lon="-1.6134">
207<time>1111238056</time>
208</trkpt>
209<trkpt lat="50.8966" lon="-1.61413">
210<time>1111238087</time>
211</trkpt>
212<trkpt lat="50.8965" lon="-1.61452">
213<time>1111238109</time>
214</trkpt>
215<trkpt lat="50.8964" lon="-1.61456">
216<time>1111238135</time>
217</trkpt>
218<trkpt lat="50.8963" lon="-1.61475">
219<time>1111238168</time>
220</trkpt>
221<trkpt lat="50.8962" lon="-1.61493">
222<time>1111238185</time>
223</trkpt>
224<trkpt lat="50.896" lon="-1.61531">
225<time>1111238206</time>
226</trkpt>
227<trkpt lat="50.896" lon="-1.61533">
228<time>1111238224</time>
229</trkpt>
230<trkpt lat="50.8961" lon="-1.61536">
231<time>1111238309</time>
232</trkpt>
233<trkpt lat="50.8961" lon="-1.6154">
234<time>1111238636</time>
235</trkpt>
236<trkpt lat="50.8961" lon="-1.61538">
237<time>1111238815</time>
238</trkpt>
239<trkpt lat="50.8959" lon="-1.61512">
240<time>1111238836</time>
241</trkpt>
242<trkpt lat="50.8957" lon="-1.6149">
243<time>1111238852</time>
244</trkpt>
245<trkpt lat="50.8955" lon="-1.6149">
246<time>1111238868</time>
247</trkpt>
248<trkpt lat="50.8953" lon="-1.61467">
249<time>1111238888</time>
250</trkpt>
251<trkpt lat="50.895" lon="-1.61437">
252<time>1111238911</time>
253</trkpt>
254<trkpt lat="50.8947" lon="-1.61403">
255<time>1111238936</time>
256</trkpt>
257<trkpt lat="50.8945" lon="-1.61364">
258<time>1111238960</time>
259</trkpt>
260<trkpt lat="50.8945" lon="-1.61364">
261<time>1111238961</time>
262</trkpt>
263<trkpt lat="50.8942" lon="-1.61351">
264<time>1111238980</time>
265</trkpt>
266<trkpt lat="50.8939" lon="-1.61353">
267<time>1111239002</time>
268</trkpt>
269<trkpt lat="50.8936" lon="-1.61353">
270<time>1111239025</time>
271</trkpt>
272<trkpt lat="50.8936" lon="-1.61349">
273<time>1111239042</time>
274</trkpt>
275<trkpt lat="50.8936" lon="-1.61375">
276<time>1111239080</time>
277</trkpt>
278<trkpt lat="50.8936" lon="-1.61508">
279<time>1111239117</time>
280</trkpt>
281<trkpt lat="50.8934" lon="-1.61546">
282<time>1111239148</time>
283</trkpt>
284<trkpt lat="50.8937" lon="-1.61621">
285<time>1111239184</time>
286</trkpt>
287<trkpt lat="50.8942" lon="-1.61757">
288<time>1111239244</time>
289</trkpt>
290<trkpt lat="50.8933" lon="-1.61754">
291<time>1111239278</time>
292</trkpt>
293<trkpt lat="50.8934" lon="-1.61769">
294<time>1111239280</time>
295</trkpt>
296<trkpt lat="50.8934" lon="-1.61836">
297<time>1111239313</time>
298</trkpt>
299<trkpt lat="50.8934" lon="-1.61857">
300<time>1111239340</time>
301</trkpt>
302<trkpt lat="50.8935" lon="-1.61905">
303<time>1111239381</time>
304</trkpt>
305<trkpt lat="50.8935" lon="-1.61971">
306<time>1111239422</time>
307</trkpt>
308<trkpt lat="50.8936" lon="-1.62029">
309<time>1111239451</time>
310</trkpt>
311<trkpt lat="50.8937" lon="-1.62085">
312<time>1111239470</time>
313</trkpt>
314<trkpt lat="50.8939" lon="-1.62126">
315<time>1111239490</time>
316</trkpt>
317<trkpt lat="50.894" lon="-1.62136">
318<time>1111239504</time>
319</trkpt>
320<trkpt lat="50.894" lon="-1.62141">
321<time>1111239538</time>
322</trkpt>
323<trkpt lat="50.894" lon="-1.62149">
324<time>1111239598</time>
325</trkpt>
326<trkpt lat="50.8938" lon="-1.62132">
327<time>1111239615</time>
328</trkpt>
329<trkpt lat="50.8935" lon="-1.62111">
330<time>1111239638</time>
331</trkpt>
332<trkpt lat="50.8932" lon="-1.62085">
333<time>1111239661</time>
334</trkpt>
335<trkpt lat="50.893" lon="-1.62066">
336<time>1111239680</time>
337</trkpt>
338<trkpt lat="50.8927" lon="-1.62038">
339<time>1111239702</time>
340</trkpt>
341<trkpt lat="50.8925" lon="-1.62016">
342<time>1111239722</time>
343</trkpt>
344<trkpt lat="50.8922" lon="-1.61965">
345<time>1111239751</time>
346</trkpt>
347<trkpt lat="50.892" lon="-1.61917">
348<time>1111239775</time>
349</trkpt>
350<trkpt lat="50.8916" lon="-1.61838">
351<time>1111239811</time>
352</trkpt>
353<trkpt lat="50.8911" lon="-1.61752">
354<time>1111239851</time>
355</trkpt>
356<trkpt lat="50.891" lon="-1.61696">
357<time>1111239877</time>
358</trkpt>
359<trkpt lat="50.8908" lon="-1.61589">
360<time>1111239936</time>
361</trkpt>
362<trkpt lat="50.8908" lon="-1.61587">
363<time>1111239963</time>
364</trkpt>
365<trkpt lat="50.8907" lon="-1.61589">
366<time>1111239969</time>
367</trkpt>
368<trkpt lat="50.8904" lon="-1.616">
369<time>1111239992</time>
370</trkpt>
371<trkpt lat="50.8901" lon="-1.61617">
372<time>1111240014</time>
373</trkpt>
374<trkpt lat="50.8901" lon="-1.61619">
375<time>1111240029</time>
376</trkpt>
377<trkpt lat="50.8899" lon="-1.61628">
378<time>1111240051</time>
379</trkpt>
380<trkpt lat="50.8895" lon="-1.6163">
381<time>1111240077</time>
382</trkpt>
383<trkpt lat="50.8893" lon="-1.6163">
384<time>1111240093</time>
385</trkpt>
386<trkpt lat="50.8891" lon="-1.61645">
387<time>1111240114</time>
388</trkpt>
389<trkpt lat="50.8888" lon="-1.61673">
390<time>1111240139</time>
391</trkpt>
392<trkpt lat="50.8884" lon="-1.61733">
393<time>1111240177</time>
394</trkpt>
395<trkpt lat="50.8884" lon="-1.61724">
396<time>1111240208</time>
397</trkpt>
398<trkpt lat="50.8883" lon="-1.61731">
399<time>1111240284</time>
400</trkpt>
401<trkpt lat="50.8885" lon="-1.61716">
402<time>1111240301</time>
403</trkpt>
404<trkpt lat="50.8883" lon="-1.61729">
405<time>1111240321</time>
406</trkpt>
407<trkpt lat="50.8882" lon="-1.61748">
408<time>1111240335</time>
409</trkpt>
410<trkpt lat="50.888" lon="-1.61791">
411<time>1111240360</time>
412</trkpt>
413<trkpt lat="50.8877" lon="-1.61842">
414<time>1111240396</time>
415</trkpt>
416<trkpt lat="50.8876" lon="-1.61845">
417<time>1111240401</time>
418</trkpt>
419<trkpt lat="50.8874" lon="-1.61877">
420<time>1111240425</time>
421</trkpt>
422<trkpt lat="50.8871" lon="-1.619">
423<time>1111240448</time>
424</trkpt>
425<trkpt lat="50.8871" lon="-1.61898">
426<time>1111240466</time>
427</trkpt>
428<trkpt lat="50.8871" lon="-1.61894">
429<time>1111240503</time>
430</trkpt>
431<trkpt lat="50.8871" lon="-1.61898">
432<time>1111240550</time>
433</trkpt>
434<trkpt lat="50.8871" lon="-1.61917">
435<time>1111240579</time>
436</trkpt>
437<trkpt lat="50.8868" lon="-1.61986">
438<time>1111240706</time>
439</trkpt>
440<trkpt lat="50.8866" lon="-1.62048">
441<time>1111240731</time>
442</trkpt>
443<trkpt lat="50.8865" lon="-1.6207">
444<time>1111240746</time>
445</trkpt>
446<trkpt lat="50.8864" lon="-1.62087">
447<time>1111240824</time>
448</trkpt>
449<trkpt lat="50.8864" lon="-1.62093">
450<time>1111240832</time>
451</trkpt>
452<trkpt lat="50.8862" lon="-1.62151">
453<time>1111240861</time>
454</trkpt>
455<trkpt lat="50.886" lon="-1.6219">
456<time>1111240879</time>
457</trkpt>
458<trkpt lat="50.8858" lon="-1.6222">
459<time>1111240902</time>
460</trkpt>
461<trkpt lat="50.8858" lon="-1.62224">
462<time>1111240925</time>
463</trkpt>
464<trkpt lat="50.8858" lon="-1.62226">
465<time>1111241199</time>
466</trkpt>
467<trkpt lat="50.8859" lon="-1.62257">
468<time>1111241222</time>
469</trkpt>
470<trkpt lat="50.8862" lon="-1.62308">
471<time>1111241252</time>
472</trkpt>
473<trkpt lat="50.8863" lon="-1.62321">
474<time>1111241274</time>
475</trkpt>
476<trkpt lat="50.8863" lon="-1.62336">
477<time>1111241300</time>
478</trkpt>
479<trkpt lat="50.8865" lon="-1.62377">
480<time>1111241326</time>
481</trkpt>
482<trkpt lat="50.8867" lon="-1.62407">
483<time>1111241345</time>
484</trkpt>
485<trkpt lat="50.887" lon="-1.62443">
486<time>1111241371</time>
487</trkpt>
488<trkpt lat="50.8869" lon="-1.62439">
489<time>1111241374</time>
490</trkpt>
491<trkpt lat="50.8866" lon="-1.62385">
492<time>1111241402</time>
493</trkpt>
494<trkpt lat="50.8863" lon="-1.62345">
495<time>1111241424</time>
496</trkpt>
497<trkpt lat="50.886" lon="-1.62342">
498<time>1111241445</time>
499</trkpt>
500<trkpt lat="50.8858" lon="-1.62392">
501<time>1111241476</time>
502</trkpt>
503<trkpt lat="50.8854" lon="-1.62501">
504<time>1111241538</time>
505</trkpt>
506<trkpt lat="50.8855" lon="-1.62557">
507<time>1111241567</time>
508</trkpt>
509<trkpt lat="50.8857" lon="-1.62591">
510<time>1111241756</time>
511</trkpt>
512<trkpt lat="50.886" lon="-1.62621">
513<time>1111241779</time>
514</trkpt>
515<trkpt lat="50.8861" lon="-1.62643">
516<time>1111241797</time>
517</trkpt>
518<trkpt lat="50.8863" lon="-1.6266">
519<time>1111241814</time>
520</trkpt>
521<trkpt lat="50.8863" lon="-1.62669">
522<time>1111241831</time>
523</trkpt>
524<trkpt lat="50.8865" lon="-1.62679">
525<time>1111241862</time>
526</trkpt>
527<trkpt lat="50.887" lon="-1.62733">
528<time>1111241907</time>
529</trkpt>
530<trkpt lat="50.8872" lon="-1.62763">
531<time>1111241929</time>
532</trkpt>
533<trkpt lat="50.8875" lon="-1.62789">
534<time>1111241948</time>
535</trkpt>
536<trkpt lat="50.8877" lon="-1.62817">
537<time>1111241967</time>
538</trkpt>
539<trkpt lat="50.8879" lon="-1.62823">
540<time>1111241982</time>
541</trkpt>
542<trkpt lat="50.8881" lon="-1.62844">
543<time>1111242004</time>
544</trkpt>
545<trkpt lat="50.8884" lon="-1.62864">
546<time>1111242030</time>
547</trkpt>
548<trkpt lat="50.8886" lon="-1.62868">
549<time>1111242061</time>
550</trkpt>
551<trkpt lat="50.8886" lon="-1.62868">
552<time>1111242077</time>
553</trkpt>
554<trkpt lat="50.8888" lon="-1.62868">
555<time>1111242097</time>
556</trkpt>
557<trkpt lat="50.889" lon="-1.62868">
558<time>1111242119</time>
559</trkpt>
560<trkpt lat="50.8892" lon="-1.62877">
561<time>1111242285</time>
562</trkpt>
563<trkpt lat="50.8893" lon="-1.62881">
564<time>1111242529</time>
565</trkpt>
566<trkpt lat="50.8893" lon="-1.62885">
567<time>1111242554</time>
568</trkpt>
569<trkpt lat="50.8895" lon="-1.62883">
570<time>1111242595</time>
571</trkpt>
572<trkpt lat="50.8898" lon="-1.62894">
573<time>1111242614</time>
574</trkpt>
575<trkpt lat="50.8901" lon="-1.62909">
576<time>1111242635</time>
577</trkpt>
578<trkpt lat="50.8904" lon="-1.62926">
579<time>1111242659</time>
580</trkpt>
581<trkpt lat="50.8907" lon="-1.62943">
582<time>1111242679</time>
583</trkpt>
584<trkpt lat="50.8908" lon="-1.62947">
585<time>1111242695</time>
586</trkpt>
587<trkpt lat="50.8909" lon="-1.6296">
588<time>1111242709</time>
589</trkpt>
590<trkpt lat="50.891" lon="-1.62967">
591<time>1111242729</time>
592</trkpt>
593<trkpt lat="50.8911" lon="-1.62982">
594<time>1111242745</time>
595</trkpt>
596<trkpt lat="50.8911" lon="-1.62988">
597<time>1111242763</time>
598</trkpt>
599<trkpt lat="50.8912" lon="-1.62984">
600<time>1111242799</time>
601</trkpt>
602<trkpt lat="50.8914" lon="-1.62997">
603<time>1111242817</time>
604</trkpt>
605<trkpt lat="50.8917" lon="-1.63018">
606<time>1111242843</time>
607</trkpt>
608<trkpt lat="50.8917" lon="-1.6302">
609<time>1111242846</time>
610</trkpt>
611<trkpt lat="50.8918" lon="-1.63027">
612<time>1111242849</time>
613</trkpt>
614<trkpt lat="50.892" lon="-1.63053">
615<time>1111242871</time>
616</trkpt>
617<trkpt lat="50.8922" lon="-1.63076">
618<time>1111242894</time>
619</trkpt>
620<trkpt lat="50.8924" lon="-1.63093">
621<time>1111242916</time>
622</trkpt>
623<trkpt lat="50.8928" lon="-1.63136">
624<time>1111242959</time>
625</trkpt>
626<trkpt lat="50.893" lon="-1.6316">
627<time>1111242976</time>
628</trkpt>
629<trkpt lat="50.8932" lon="-1.63186">
630<time>1111242996</time>
631</trkpt>
632<trkpt lat="50.8933" lon="-1.6319">
633<time>1111243024</time>
634</trkpt>
635<trkpt lat="50.8936" lon="-1.63216">
636<time>1111243046</time>
637</trkpt>
638<trkpt lat="50.8938" lon="-1.63226">
639<time>1111243064</time>
640</trkpt>
641<trkpt lat="50.894" lon="-1.63241">
642<time>1111243085</time>
643</trkpt>
644<trkpt lat="50.8942" lon="-1.63254">
645<time>1111243100</time>
646</trkpt>
647<trkpt lat="50.8942" lon="-1.63254">
648<time>1111243132</time>
649</trkpt>
650<trkpt lat="50.8942" lon="-1.63256">
651<time>1111243155</time>
652</trkpt>
653<trkpt lat="50.8942" lon="-1.63256">
654<time>1111243174</time>
655</trkpt>
656<trkpt lat="50.8942" lon="-1.63256">
657<time>1111243837</time>
658</trkpt>
659<trkpt lat="50.894" lon="-1.63271">
660<time>1111243857</time>
661</trkpt>
662<trkpt lat="50.8937" lon="-1.63293">
663<time>1111243882</time>
664</trkpt>
665<trkpt lat="50.8936" lon="-1.63299">
666<time>1111243892</time>
667</trkpt>
668<trkpt lat="50.8935" lon="-1.6331">
669<time>1111243909</time>
670</trkpt>
671<trkpt lat="50.8935" lon="-1.6331">
672<time>1111243919</time>
673</trkpt>
674<trkpt lat="50.8931" lon="-1.63332">
675<time>1111243954</time>
676</trkpt>
677<trkpt lat="50.8934" lon="-1.63312">
678<time>1111243961</time>
679</trkpt>
680<trkpt lat="50.8935" lon="-1.63312">
681<time>1111243977</time>
682</trkpt>
683<trkpt lat="50.8935" lon="-1.63312">
684<time>1111243981</time>
685</trkpt>
686<trkpt lat="50.8933" lon="-1.63357">
687<time>1111244006</time>
688</trkpt>
689<trkpt lat="50.8932" lon="-1.63407">
690<time>1111244032</time>
691</trkpt>
692<trkpt lat="50.8932" lon="-1.63411">
693<time>1111244040</time>
694</trkpt>
695<trkpt lat="50.8933" lon="-1.63424">
696<time>1111244054</time>
697</trkpt>
698<trkpt lat="50.8933" lon="-1.63424">
699<time>1111244083</time>
700</trkpt>
701<trkpt lat="50.8932" lon="-1.63415">
702<time>1111244087</time>
703</trkpt>
704<trkpt lat="50.8932" lon="-1.63366">
705<time>1111244110</time>
706</trkpt>
707<trkpt lat="50.8935" lon="-1.63314">
708<time>1111244136</time>
709</trkpt>
710<trkpt lat="50.8937" lon="-1.63291">
711<time>1111244155</time>
712</trkpt>
713<trkpt lat="50.894" lon="-1.63267">
714<time>1111244176</time>
715</trkpt>
716<trkpt lat="50.8942" lon="-1.63252">
717<time>1111244195</time>
718</trkpt>
719<trkpt lat="50.8944" lon="-1.63244">
720<time>1111244210</time>
721</trkpt>
722<trkpt lat="50.8947" lon="-1.63235">
723<time>1111244228</time>
724</trkpt>
725<trkpt lat="50.895" lon="-1.63224">
726<time>1111244247</time>
727</trkpt>
728<trkpt lat="50.895" lon="-1.6322">
729<time>1111244250</time>
730</trkpt>
731<trkpt lat="50.8953" lon="-1.63201">
732<time>1111244272</time>
733</trkpt>
734<trkpt lat="50.8956" lon="-1.6319">
735<time>1111244294</time>
736</trkpt>
737<trkpt lat="50.8959" lon="-1.6319">
738<time>1111244312</time>
739</trkpt>
740<trkpt lat="50.8963" lon="-1.63192">
741<time>1111244336</time>
742</trkpt>
743<trkpt lat="50.8966" lon="-1.63188">
744<time>1111244357</time>
745</trkpt>
746<trkpt lat="50.8969" lon="-1.63179">
747<time>1111244378</time>
748</trkpt>
749<trkpt lat="50.8971" lon="-1.63177">
750<time>1111244396</time>
751</trkpt>
752<trkpt lat="50.8972" lon="-1.63177">
753<time>1111244411</time>
754</trkpt>
755<trkpt lat="50.8972" lon="-1.63177">
756<time>1111244459</time>
757</trkpt>
758<trkpt lat="50.8972" lon="-1.63179">
759<time>1111244485</time>
760</trkpt>
761<trkpt lat="50.8969" lon="-1.63207">
762<time>1111244509</time>
763</trkpt>
764<trkpt lat="50.8966" lon="-1.63224">
765<time>1111244528</time>
766</trkpt>
767<trkpt lat="50.8965" lon="-1.63246">
768<time>1111244546</time>
769</trkpt>
770<trkpt lat="50.8963" lon="-1.63259">
771<time>1111244566</time>
772</trkpt>
773<trkpt lat="50.8961" lon="-1.63284">
774<time>1111244588</time>
775</trkpt>
776<trkpt lat="50.8959" lon="-1.63286">
777<time>1111244604</time>
778</trkpt>
779<trkpt lat="50.8956" lon="-1.63299">
780<time>1111244624</time>
781</trkpt>
782<trkpt lat="50.8953" lon="-1.63308">
783<time>1111244647</time>
784</trkpt>
785<trkpt lat="50.8951" lon="-1.63319">
786<time>1111244666</time>
787</trkpt>
788<trkpt lat="50.8948" lon="-1.6334">
789<time>1111244690</time>
790</trkpt>
791<trkpt lat="50.8947" lon="-1.63344">
792<time>1111244706</time>
793</trkpt>
794<trkpt lat="50.8946" lon="-1.63355">
795<time>1111244720</time>
796</trkpt>
797<trkpt lat="50.8943" lon="-1.63368">
798<time>1111244740</time>
799</trkpt>
800<trkpt lat="50.894" lon="-1.63385">
801<time>1111244762</time>
802</trkpt>
803<trkpt lat="50.8937" lon="-1.63402">
804<time>1111244783</time>
805</trkpt>
806<trkpt lat="50.8935" lon="-1.63422">
807<time>1111244802</time>
808</trkpt>
809<trkpt lat="50.8934" lon="-1.6343">
810<time>1111244817</time>
811</trkpt>
812<trkpt lat="50.8934" lon="-1.63432">
813<time>1111244821</time>
814</trkpt>
815<trkpt lat="50.8931" lon="-1.63445">
816<time>1111244843</time>
817</trkpt>
818<trkpt lat="50.8928" lon="-1.63475">
819<time>1111244864</time>
820</trkpt>
821<trkpt lat="50.8925" lon="-1.63514">
822<time>1111244889</time>
823</trkpt>
824<trkpt lat="50.8925" lon="-1.63516">
825<time>1111244913</time>
826</trkpt>
827<trkpt lat="50.8925" lon="-1.63516">
828<time>1111244926</time>
829</trkpt>
830<trkpt lat="50.8925" lon="-1.63561">
831<time>1111244947</time>
832</trkpt>
833<trkpt lat="50.8926" lon="-1.63589">
834<time>1111244964</time>
835</trkpt>
836<trkpt lat="50.8927" lon="-1.63595">
837<time>1111244979</time>
838</trkpt>
839<trkpt lat="50.8927" lon="-1.636">
840<time>1111244995</time>
841</trkpt>
842<trkpt lat="50.8928" lon="-1.63608">
843<time>1111245011</time>
844</trkpt>
845<trkpt lat="50.8929" lon="-1.63626">
846<time>1111245040</time>
847</trkpt>
848<trkpt lat="50.8929" lon="-1.63619">
849<time>1111245057</time>
850</trkpt>
851<trkpt lat="50.8929" lon="-1.6363">
852<time>1111245085</time>
853</trkpt>
854<trkpt lat="50.8929" lon="-1.63636">
855<time>1111245126</time>
856</trkpt>
857<trkpt lat="50.893" lon="-1.63643">
858<time>1111245145</time>
859</trkpt>
860<trkpt lat="50.8932" lon="-1.63668">
861<time>1111245163</time>
862</trkpt>
863<trkpt lat="50.8933" lon="-1.63696">
864<time>1111245178</time>
865</trkpt>
866<trkpt lat="50.8935" lon="-1.63735">
867<time>1111245199</time>
868</trkpt>
869<trkpt lat="50.8936" lon="-1.63759">
870<time>1111245214</time>
871</trkpt>
872<trkpt lat="50.8936" lon="-1.63769">
873<time>1111245232</time>
874</trkpt>
875<trkpt lat="50.8937" lon="-1.63782">
876<time>1111245241</time>
877</trkpt>
878<trkpt lat="50.8937" lon="-1.63789">
879<time>1111245244</time>
880</trkpt>
881<trkpt lat="50.8939" lon="-1.63823">
882<time>1111245265</time>
883</trkpt>
884<trkpt lat="50.8941" lon="-1.63842">
885<time>1111245283</time>
886</trkpt>
887<trkpt lat="50.8941" lon="-1.63842">
888<time>1111245295</time>
889</trkpt>
890<trkpt lat="50.8942" lon="-1.63866">
891<time>1111245312</time>
892</trkpt>
893<trkpt lat="50.8942" lon="-1.6387">
894<time>1111245349</time>
895</trkpt>
896<trkpt lat="50.8943" lon="-1.63881">
897<time>1111245368</time>
898</trkpt>
899<trkpt lat="50.8944" lon="-1.63904">
900<time>1111245383</time>
901</trkpt>
902<trkpt lat="50.8945" lon="-1.63924">
903<time>1111245400</time>
904</trkpt>
905<trkpt lat="50.8947" lon="-1.63945">
906<time>1111245414</time>
907</trkpt>
908<trkpt lat="50.8948" lon="-1.63973">
909<time>1111245433</time>
910</trkpt>
911<trkpt lat="50.8949" lon="-1.63986">
912<time>1111245448</time>
913</trkpt>
914<trkpt lat="50.8951" lon="-1.64016">
915<time>1111245467</time>
916</trkpt>
917<trkpt lat="50.8953" lon="-1.64042">
918<time>1111245487</time>
919</trkpt>
920<trkpt lat="50.8954" lon="-1.64055">
921<time>1111245508</time>
922</trkpt>
923<trkpt lat="50.8957" lon="-1.6408">
924<time>1111245528</time>
925</trkpt>
926<trkpt lat="50.8958" lon="-1.641">
927<time>1111245544</time>
928</trkpt>
929<trkpt lat="50.8959" lon="-1.64108">
930<time>1111245555</time>
931</trkpt>
932<trkpt lat="50.8959" lon="-1.64113">
933<time>1111245573</time>
934</trkpt>
935<trkpt lat="50.896" lon="-1.64123">
936<time>1111245639</time>
937</trkpt>
938<trkpt lat="50.8963" lon="-1.64151">
939<time>1111245658</time>
940</trkpt>
941<trkpt lat="50.8965" lon="-1.64181">
942<time>1111245679</time>
943</trkpt>
944<trkpt lat="50.8968" lon="-1.64205">
945<time>1111245702</time>
946</trkpt>
947<trkpt lat="50.897" lon="-1.6422">
948<time>1111245720</time>
949</trkpt>
950<trkpt lat="50.8973" lon="-1.64235">
951<time>1111245742</time>
952</trkpt>
953<trkpt lat="50.8975" lon="-1.64231">
954<time>1111245761</time>
955</trkpt>
956<trkpt lat="50.8978" lon="-1.64224">
957<time>1111245782</time>
958</trkpt>
959<trkpt lat="50.898" lon="-1.64224">
960<time>1111245800</time>
961</trkpt>
962<trkpt lat="50.8982" lon="-1.64228">
963<time>1111245816</time>
964</trkpt>
965<trkpt lat="50.8982" lon="-1.64228">
966<time>1111245830</time>
967</trkpt>
968<trkpt lat="50.8981" lon="-1.64226">
969<time>1111245983</time>
970</trkpt>
971<trkpt lat="50.8979" lon="-1.64246">
972<time>1111246003</time>
973</trkpt>
974<trkpt lat="50.8977" lon="-1.64289">
975<time>1111246029</time>
976</trkpt>
977<trkpt lat="50.8975" lon="-1.64319">
978<time>1111246047</time>
979</trkpt>
980<trkpt lat="50.8974" lon="-1.64355">
981<time>1111246068</time>
982</trkpt>
983<trkpt lat="50.8972" lon="-1.64387">
984<time>1111246088</time>
985</trkpt>
986<trkpt lat="50.897" lon="-1.64428">
987<time>1111246112</time>
988</trkpt>
989<trkpt lat="50.8968" lon="-1.64462">
990<time>1111246134</time>
991</trkpt>
992<trkpt lat="50.8965" lon="-1.64495">
993<time>1111246157</time>
994</trkpt>
995<trkpt lat="50.8963" lon="-1.64525">
996<time>1111246175</time>
997</trkpt>
998<trkpt lat="50.8961" lon="-1.64557">
999<time>1111246197</time>
1000</trkpt>
1001<trkpt lat="50.8959" lon="-1.64585">
1002<time>1111246218</time>
1003</trkpt>
1004<trkpt lat="50.8956" lon="-1.64613">
1005<time>1111246238</time>
1006</trkpt>
1007<trkpt lat="50.8954" lon="-1.64647">
1008<time>1111246260</time>
1009</trkpt>
1010<trkpt lat="50.8952" lon="-1.64677">
1011<time>1111246281</time>
1012</trkpt>
1013<trkpt lat="50.8951" lon="-1.64681">
1014<time>1111246300</time>
1015</trkpt>
1016<trkpt lat="50.895" lon="-1.64692">
1017<time>1111246314</time>
1018</trkpt>
1019<trkpt lat="50.8948" lon="-1.64713">
1020<time>1111246331</time>
1021</trkpt>
1022<trkpt lat="50.8948" lon="-1.6472">
1023<time>1111246335</time>
1024</trkpt>
1025<trkpt lat="50.8947" lon="-1.64728">
1026<time>1111246339</time>
1027</trkpt>
1028<trkpt lat="50.8947" lon="-1.64739">
1029<time>1111246356</time>
1030</trkpt>
1031<trkpt lat="50.8946" lon="-1.64754">
1032<time>1111246368</time>
1033</trkpt>
1034<trkpt lat="50.8944" lon="-1.64767">
1035<time>1111246384</time>
1036</trkpt>
1037<trkpt lat="50.8943" lon="-1.64776">
1038<time>1111246401</time>
1039</trkpt>
1040<trkpt lat="50.8941" lon="-1.64797">
1041<time>1111246418</time>
1042</trkpt>
1043<trkpt lat="50.8938" lon="-1.64823">
1044<time>1111246441</time>
1045</trkpt>
1046<trkpt lat="50.8935" lon="-1.64851">
1047<time>1111246465</time>
1048</trkpt>
1049<trkpt lat="50.8932" lon="-1.64877">
1050<time>1111246489</time>
1051</trkpt>
1052<trkpt lat="50.893" lon="-1.64889">
1053<time>1111246516</time>
1054</trkpt>
1055<trkpt lat="50.8929" lon="-1.64902">
1056<time>1111246533</time>
1057</trkpt>
1058<trkpt lat="50.8927" lon="-1.64924">
1059<time>1111246553</time>
1060</trkpt>
1061<trkpt lat="50.8927" lon="-1.64924">
1062<time>1111246583</time>
1063</trkpt>
1064<trkpt lat="50.8926" lon="-1.64924">
1065<time>1111246703</time>
1066</trkpt>
1067<trkpt lat="50.8925" lon="-1.64941">
1068<time>1111247701</time>
1069</trkpt>
1070<trkpt lat="50.8924" lon="-1.64962">
1071<time>1111247718</time>
1072</trkpt>
1073<trkpt lat="50.8922" lon="-1.64988">
1074<time>1111247734</time>
1075</trkpt>
1076<trkpt lat="50.8921" lon="-1.65005">
1077<time>1111247750</time>
1078</trkpt>
1079<trkpt lat="50.892" lon="-1.65033">
1080<time>1111247766</time>
1081</trkpt>
1082<trkpt lat="50.8918" lon="-1.65059">
1083<time>1111247783</time>
1084</trkpt>
1085<trkpt lat="50.8916" lon="-1.65085">
1086<time>1111247803</time>
1087</trkpt>
1088<trkpt lat="50.8915" lon="-1.65104">
1089<time>1111247814</time>
1090</trkpt>
1091<trkpt lat="50.8914" lon="-1.65117">
1092<time>1111247825</time>
1093</trkpt>
1094<trkpt lat="50.8913" lon="-1.65117">
1095<time>1111247842</time>
1096</trkpt>
1097<trkpt lat="50.8913" lon="-1.65117">
1098<time>1111247843</time>
1099</trkpt>
1100<trkpt lat="50.8912" lon="-1.65123">
1101<time>1111247853</time>
1102</trkpt>
1103<trkpt lat="50.8912" lon="-1.6513">
1104<time>1111247872</time>
1105</trkpt>
1106<trkpt lat="50.8912" lon="-1.65132">
1107<time>1111247914</time>
1108</trkpt>
1109<trkpt lat="50.8912" lon="-1.65138">
1110<time>1111248154</time>
1111</trkpt>
1112<trkpt lat="50.8912" lon="-1.65145">
1113<time>1111248171</time>
1114</trkpt>
1115<trkpt lat="50.8913" lon="-1.6517">
1116<time>1111248190</time>
1117</trkpt>
1118<trkpt lat="50.8914" lon="-1.65183">
1119<time>1111248207</time>
1120</trkpt>
1121<trkpt lat="50.8916" lon="-1.65218">
1122<time>1111248226</time>
1123</trkpt>
1124<trkpt lat="50.8918" lon="-1.6525">
1125<time>1111248245</time>
1126</trkpt>
1127<trkpt lat="50.8919" lon="-1.65288">
1128<time>1111248265</time>
1129</trkpt>
1130<trkpt lat="50.892" lon="-1.65316">
1131<time>1111248284</time>
1132</trkpt>
1133<trkpt lat="50.8921" lon="-1.65344">
1134<time>1111248300</time>
1135</trkpt>
1136<trkpt lat="50.8924" lon="-1.65383">
1137<time>1111248322</time>
1138</trkpt>
1139<trkpt lat="50.8924" lon="-1.65407">
1140<time>1111248337</time>
1141</trkpt>
1142<trkpt lat="50.8924" lon="-1.65456">
1143<time>1111248359</time>
1144</trkpt>
1145<trkpt lat="50.8925" lon="-1.65497">
1146<time>1111248379</time>
1147</trkpt>
1148<trkpt lat="50.8926" lon="-1.6555">
1149<time>1111248404</time>
1150</trkpt>
1151<trkpt lat="50.8927" lon="-1.65574">
1152<time>1111248419</time>
1153</trkpt>
1154<trkpt lat="50.8927" lon="-1.6558">
1155<time>1111248438</time>
1156</trkpt>
1157<trkpt lat="50.8927" lon="-1.65582">
1158<time>1111248469</time>
1159</trkpt>
1160<trkpt lat="50.8927" lon="-1.65593">
1161<time>1111248474</time>
1162</trkpt>
1163<trkpt lat="50.8928" lon="-1.65653">
1164<time>1111248501</time>
1165</trkpt>
1166<trkpt lat="50.8928" lon="-1.65694">
1167<time>1111248520</time>
1168</trkpt>
1169<trkpt lat="50.8928" lon="-1.6572">
1170<time>1111248535</time>
1171</trkpt>
1172<trkpt lat="50.8927" lon="-1.65758">
1173<time>1111248552</time>
1174</trkpt>
1175<trkpt lat="50.8926" lon="-1.65803">
1176<time>1111248573</time>
1177</trkpt>
1178<trkpt lat="50.8925" lon="-1.65844">
1179<time>1111248593</time>
1180</trkpt>
1181<trkpt lat="50.8925" lon="-1.65849">
1182<time>1111248607</time>
1183</trkpt>
1184<trkpt lat="50.8925" lon="-1.65821">
1185<time>1111248624</time>
1186</trkpt>
1187<trkpt lat="50.8926" lon="-1.65803">
1188<time>1111248650</time>
1189</trkpt>
1190<trkpt lat="50.8927" lon="-1.65769">
1191<time>1111248665</time>
1192</trkpt>
1193<trkpt lat="50.8928" lon="-1.65709">
1194<time>1111248689</time>
1195</trkpt>
1196<trkpt lat="50.8928" lon="-1.65653">
1197<time>1111248713</time>
1198</trkpt>
1199<trkpt lat="50.8927" lon="-1.65632">
1200<time>1111248731</time>
1201</trkpt>
1202<trkpt lat="50.8927" lon="-1.65606">
1203<time>1111248760</time>
1204</trkpt>
1205<trkpt lat="50.8927" lon="-1.65593">
1206<time>1111248765</time>
1207</trkpt>
1208<trkpt lat="50.8928" lon="-1.65591">
1209<time>1111248772</time>
1210</trkpt>
1211<trkpt lat="50.893" lon="-1.65617">
1212<time>1111248791</time>
1213</trkpt>
1214<trkpt lat="50.8932" lon="-1.65651">
1215<time>1111248814</time>
1216</trkpt>
1217<trkpt lat="50.8933" lon="-1.6566">
1218<time>1111248830</time>
1219</trkpt>
1220<trkpt lat="50.8933" lon="-1.6566">
1221<time>1111248838</time>
1222</trkpt>
1223<trkpt lat="50.8933" lon="-1.65664">
1224<time>1111248843</time>
1225</trkpt>
1226<trkpt lat="50.8931" lon="-1.65688">
1227<time>1111248852</time>
1228</trkpt>
1229<trkpt lat="50.893" lon="-1.65724">
1230<time>1111248869</time>
1231</trkpt>
1232<trkpt lat="50.893" lon="-1.65743">
1233<time>1111248880</time>
1234</trkpt>
1235<trkpt lat="50.8931" lon="-1.65773">
1236<time>1111248897</time>
1237</trkpt>
1238<trkpt lat="50.8933" lon="-1.65821">
1239<time>1111248920</time>
1240</trkpt>
1241<trkpt lat="50.8933" lon="-1.65831">
1242<time>1111248936</time>
1243</trkpt>
1244<trkpt lat="50.8932" lon="-1.6578">
1245<time>1111248946</time>
1246</trkpt>
1247<trkpt lat="50.893" lon="-1.65703">
1248<time>1111248961</time>
1249</trkpt>
1250<trkpt lat="50.893" lon="-1.65685">
1251<time>1111248964</time>
1252</trkpt>
1253<trkpt lat="50.8929" lon="-1.6567">
1254<time>1111248968</time>
1255</trkpt>
1256<trkpt lat="50.8928" lon="-1.65662">
1257<time>1111248975</time>
1258</trkpt>
1259<trkpt lat="50.8928" lon="-1.65698">
1260<time>1111248989</time>
1261</trkpt>
1262<trkpt lat="50.8927" lon="-1.65748">
1263<time>1111249009</time>
1264</trkpt>
1265<trkpt lat="50.8926" lon="-1.65799">
1266<time>1111249031</time>
1267</trkpt>
1268<trkpt lat="50.8925" lon="-1.65844">
1269<time>1111249050</time>
1270</trkpt>
1271<trkpt lat="50.8924" lon="-1.65885">
1272<time>1111249068</time>
1273</trkpt>
1274<trkpt lat="50.8923" lon="-1.65947">
1275<time>1111249094</time>
1276</trkpt>
1277<trkpt lat="50.8922" lon="-1.66003">
1278<time>1111249117</time>
1279</trkpt>
1280<trkpt lat="50.8921" lon="-1.66057">
1281<time>1111249140</time>
1282</trkpt>
1283<trkpt lat="50.892" lon="-1.66093">
1284<time>1111249160</time>
1285</trkpt>
1286<trkpt lat="50.8917" lon="-1.66121">
1287<time>1111249180</time>
1288</trkpt>
1289<trkpt lat="50.8915" lon="-1.66153">
1290<time>1111249203</time>
1291</trkpt>
1292<trkpt lat="50.8915" lon="-1.66155">
1293<time>1111249214</time>
1294</trkpt>
1295<trkpt lat="50.8916" lon="-1.66153">
1296<time>1111249232</time>
1297</trkpt>
1298<trkpt lat="50.8917" lon="-1.66149">
1299<time>1111249247</time>
1300</trkpt>
1301<trkpt lat="50.8921" lon="-1.66143">
1302<time>1111249273</time>
1303</trkpt>
1304<trkpt lat="50.8924" lon="-1.66136">
1305<time>1111249296</time>
1306</trkpt>
1307<trkpt lat="50.8927" lon="-1.66132">
1308<time>1111249314</time>
1309</trkpt>
1310<trkpt lat="50.8929" lon="-1.66123">
1311<time>1111249333</time>
1312</trkpt>
1313<trkpt lat="50.893" lon="-1.6611">
1314<time>1111249348</time>
1315</trkpt>
1316<trkpt lat="50.893" lon="-1.6611">
1317<time>1111249369</time>
1318</trkpt>
1319<trkpt lat="50.893" lon="-1.6611">
1320<time>1111249404</time>
1321</trkpt>
1322<trkpt lat="50.8931" lon="-1.66106">
1323<time>1111249409</time>
1324</trkpt>
1325<trkpt lat="50.8934" lon="-1.66095">
1326<time>1111249433</time>
1327</trkpt>
1328<trkpt lat="50.8937" lon="-1.66085">
1329<time>1111249455</time>
1330</trkpt>
1331<trkpt lat="50.894" lon="-1.66091">
1332<time>1111249477</time>
1333</trkpt>
1334<trkpt lat="50.8943" lon="-1.66095">
1335<time>1111249501</time>
1336</trkpt>
1337<trkpt lat="50.8945" lon="-1.66085">
1338<time>1111249526</time>
1339</trkpt>
1340<trkpt lat="50.8948" lon="-1.6604">
1341<time>1111249551</time>
1342</trkpt>
1343<trkpt lat="50.895" lon="-1.66003">
1344<time>1111249573</time>
1345</trkpt>
1346<trkpt lat="50.8952" lon="-1.65975">
1347<time>1111249594</time>
1348</trkpt>
1349<trkpt lat="50.8953" lon="-1.65975">
1350<time>1111249609</time>
1351</trkpt>
1352<trkpt lat="50.8953" lon="-1.65979">
1353<time>1111249612</time>
1354</trkpt>
1355<trkpt lat="50.8956" lon="-1.66035">
1356<time>1111249654</time>
1357</trkpt>
1358<trkpt lat="50.8959" lon="-1.66059">
1359<time>1111249671</time>
1360</trkpt>
1361<trkpt lat="50.896" lon="-1.66074">
1362<time>1111249684</time>
1363</trkpt>
1364<trkpt lat="50.8962" lon="-1.66044">
1365<time>1111249703</time>
1366</trkpt>
1367<trkpt lat="50.8965" lon="-1.66024">
1368<time>1111249725</time>
1369</trkpt>
1370<trkpt lat="50.8968" lon="-1.6602">
1371<time>1111249743</time>
1372</trkpt>
1373<trkpt lat="50.8971" lon="-1.66031">
1374<time>1111249763</time>
1375</trkpt>
1376<trkpt lat="50.8974" lon="-1.66033">
1377<time>1111249786</time>
1378</trkpt>
1379<trkpt lat="50.8977" lon="-1.66024">
1380<time>1111249812</time>
1381</trkpt>
1382<trkpt lat="50.898" lon="-1.66024">
1383<time>1111249829</time>
1384</trkpt>
1385<trkpt lat="50.898" lon="-1.66027">
1386<time>1111249845</time>
1387</trkpt>
1388<trkpt lat="50.898" lon="-1.66029">
1389<time>1111250003</time>
1390</trkpt>
1391<trkpt lat="50.8979" lon="-1.65975">
1392<time>1111250024</time>
1393</trkpt>
1394<trkpt lat="50.8979" lon="-1.65926">
1395<time>1111250045</time>
1396</trkpt>
1397<trkpt lat="50.8982" lon="-1.65902">
1398<time>1111250063</time>
1399</trkpt>
1400<trkpt lat="50.8985" lon="-1.65876">
1401<time>1111250087</time>
1402</trkpt>
1403<trkpt lat="50.8985" lon="-1.65872">
1404<time>1111250092</time>
1405</trkpt>
1406<trkpt lat="50.8984" lon="-1.65857">
1407<time>1111250098</time>
1408</trkpt>
1409<trkpt lat="50.8984" lon="-1.65806">
1410<time>1111250119</time>
1411</trkpt>
1412<trkpt lat="50.8983" lon="-1.65761">
1413<time>1111250139</time>
1414</trkpt>
1415<trkpt lat="50.8983" lon="-1.65743">
1416<time>1111250156</time>
1417</trkpt>
1418<trkpt lat="50.8984" lon="-1.65739">
1419<time>1111250177</time>
1420</trkpt>
1421<trkpt lat="50.8983" lon="-1.65739">
1422<time>1111250228</time>
1423</trkpt>
1424<trkpt lat="50.8986" lon="-1.65748">
1425<time>1111250247</time>
1426</trkpt>
1427<trkpt lat="50.899" lon="-1.65761">
1428<time>1111250270</time>
1429</trkpt>
1430<trkpt lat="50.8993" lon="-1.65771">
1431<time>1111250293</time>
1432</trkpt>
1433<trkpt lat="50.8994" lon="-1.65771">
1434<time>1111250310</time>
1435</trkpt>
1436<trkpt lat="50.8994" lon="-1.65769">
1437<time>1111250372</time>
1438</trkpt>
1439<trkpt lat="50.8994" lon="-1.6575">
1440<time>1111250384</time>
1441</trkpt>
1442<trkpt lat="50.8996" lon="-1.65705">
1443<time>1111250404</time>
1444</trkpt>
1445<trkpt lat="50.8997" lon="-1.65653">
1446<time>1111250426</time>
1447</trkpt>
1448<trkpt lat="50.8998" lon="-1.65606">
1449<time>1111250447</time>
1450</trkpt>
1451<trkpt lat="50.8999" lon="-1.65555">
1452<time>1111250469</time>
1453</trkpt>
1454<trkpt lat="50.9" lon="-1.65518">
1455<time>1111250487</time>
1456</trkpt>
1457<trkpt lat="50.9001" lon="-1.65477">
1458<time>1111250507</time>
1459</trkpt>
1460<trkpt lat="50.9004" lon="-1.65441">
1461<time>1111250530</time>
1462</trkpt>
1463<trkpt lat="50.9006" lon="-1.65389">
1464<time>1111250555</time>
1465</trkpt>
1466<trkpt lat="50.9006" lon="-1.65372">
1467<time>1111250570</time>
1468</trkpt>
1469<trkpt lat="50.9008" lon="-1.65353">
1470<time>1111250586</time>
1471</trkpt>
1472<trkpt lat="50.901" lon="-1.65329">
1473<time>1111250607</time>
1474</trkpt>
1475<trkpt lat="50.9011" lon="-1.65325">
1476<time>1111250624</time>
1477</trkpt>
1478<trkpt lat="50.9012" lon="-1.65321">
1479<time>1111250640</time>
1480</trkpt>
1481<trkpt lat="50.9012" lon="-1.65319">
1482<time>1111250642</time>
1483</trkpt>
1484<trkpt lat="50.9012" lon="-1.65312">
1485<time>1111250648</time>
1486</trkpt>
1487<trkpt lat="50.9013" lon="-1.65316">
1488<time>1111250651</time>
1489</trkpt>
1490<trkpt lat="50.9013" lon="-1.65312">
1491<time>1111250656</time>
1492</trkpt>
1493<trkpt lat="50.9015" lon="-1.65306">
1494<time>1111250667</time>
1495</trkpt>
1496<trkpt lat="50.9013" lon="-1.65297">
1497<time>1111250674</time>
1498</trkpt>
1499<trkpt lat="50.9011" lon="-1.6528">
1500<time>1111250693</time>
1501</trkpt>
1502<trkpt lat="50.9007" lon="-1.65258">
1503<time>1111250716</time>
1504</trkpt>
1505<trkpt lat="50.9007" lon="-1.65256">
1506<time>1111250719</time>
1507</trkpt>
1508<trkpt lat="50.9007" lon="-1.65261">
1509<time>1111250732</time>
1510</trkpt>
1511<trkpt lat="50.901" lon="-1.65271">
1512<time>1111250751</time>
1513</trkpt>
1514<trkpt lat="50.9013" lon="-1.65297">
1515<time>1111250774</time>
1516</trkpt>
1517<trkpt lat="50.9017" lon="-1.65331">
1518<time>1111250800</time>
1519</trkpt>
1520<trkpt lat="50.902" lon="-1.65342">
1521<time>1111250818</time>
1522</trkpt>
1523<trkpt lat="50.902" lon="-1.65346">
1524<time>1111250821</time>
1525</trkpt>
1526<trkpt lat="50.9021" lon="-1.65376">
1527<time>1111250841</time>
1528</trkpt>
1529<trkpt lat="50.9021" lon="-1.65396">
1530<time>1111250864</time>
1531</trkpt>
1532<trkpt lat="50.9022" lon="-1.65394">
1533<time>1111250872</time>
1534</trkpt>
1535<trkpt lat="50.9024" lon="-1.65409">
1536<time>1111250888</time>
1537</trkpt>
1538<trkpt lat="50.9027" lon="-1.6543">
1539<time>1111250911</time>
1540</trkpt>
1541<trkpt lat="50.9027" lon="-1.65432">
1542<time>1111250933</time>
1543</trkpt>
1544<trkpt lat="50.9024" lon="-1.65424">
1545<time>1111250969</time>
1546</trkpt>
1547<trkpt lat="50.9022" lon="-1.65404">
1548<time>1111251046</time>
1549</trkpt>
1550<trkpt lat="50.9021" lon="-1.654">
1551<time>1111251054</time>
1552</trkpt>
1553<trkpt lat="50.902" lon="-1.65404">
1554<time>1111251069</time>
1555</trkpt>
1556<trkpt lat="50.9019" lon="-1.65404">
1557<time>1111251088</time>
1558</trkpt>
1559<trkpt lat="50.9019" lon="-1.65409">
1560<time>1111251093</time>
1561</trkpt>
1562<trkpt lat="50.9017" lon="-1.65434">
1563<time>1111251122</time>
1564</trkpt>
1565<trkpt lat="50.9018" lon="-1.65413">
1566<time>1111251140</time>
1567</trkpt>
1568<trkpt lat="50.9021" lon="-1.65404">
1569<time>1111251177</time>
1570</trkpt>
1571<trkpt lat="50.9021" lon="-1.65426">
1572<time>1111251205</time>
1573</trkpt>
1574<trkpt lat="50.9021" lon="-1.65402">
1575<time>1111251232</time>
1576</trkpt>
1577<trkpt lat="50.9022" lon="-1.65361">
1578<time>1111251296</time>
1579</trkpt>
1580<trkpt lat="50.9021" lon="-1.65353">
1581<time>1111251302</time>
1582</trkpt>
1583<trkpt lat="50.902" lon="-1.65325">
1584<time>1111251320</time>
1585</trkpt>
1586<trkpt lat="50.902" lon="-1.65306">
1587<time>1111251330</time>
1588</trkpt>
1589<trkpt lat="50.9022" lon="-1.65233">
1590<time>1111251360</time>
1591</trkpt>
1592<trkpt lat="50.9022" lon="-1.65188">
1593<time>1111251385</time>
1594</trkpt>
1595<trkpt lat="50.9023" lon="-1.6514">
1596<time>1111251407</time>
1597</trkpt>
1598<trkpt lat="50.9023" lon="-1.65059">
1599<time>1111251442</time>
1600</trkpt>
1601<trkpt lat="50.9023" lon="-1.6502">
1602<time>1111251461</time>
1603</trkpt>
1604<trkpt lat="50.9025" lon="-1.64995">
1605<time>1111251477</time>
1606</trkpt>
1607<trkpt lat="50.9027" lon="-1.64969">
1608<time>1111251498</time>
1609</trkpt>
1610<trkpt lat="50.9032" lon="-1.64937">
1611<time>1111251527</time>
1612</trkpt>
1613<trkpt lat="50.9036" lon="-1.64913">
1614<time>1111251556</time>
1615</trkpt>
1616<trkpt lat="50.9038" lon="-1.64868">
1617<time>1111251578</time>
1618</trkpt>
1619<trkpt lat="50.904" lon="-1.64812">
1620<time>1111251607</time>
1621</trkpt>
1622<trkpt lat="50.9042" lon="-1.64771">
1623<time>1111251627</time>
1624</trkpt>
1625<trkpt lat="50.9044" lon="-1.64724">
1626<time>1111251648</time>
1627</trkpt>
1628<trkpt lat="50.9045" lon="-1.64701">
1629<time>1111251670</time>
1630</trkpt>
1631<trkpt lat="50.9048" lon="-1.64655">
1632<time>1111251702</time>
1633</trkpt>
1634<trkpt lat="50.905" lon="-1.64623">
1635<time>1111251722</time>
1636</trkpt>
1637<trkpt lat="50.9051" lon="-1.646">
1638<time>1111251741</time>
1639</trkpt>
1640<trkpt lat="50.9051" lon="-1.646">
1641<time>1111251746</time>
1642</trkpt>
1643<trkpt lat="50.9055" lon="-1.64604">
1644<time>1111251767</time>
1645</trkpt>
1646<trkpt lat="50.9057" lon="-1.64608">
1647<time>1111251787</time>
1648</trkpt>
1649<trkpt lat="50.9058" lon="-1.64613">
1650<time>1111251806</time>
1651</trkpt>
1652<trkpt lat="50.9058" lon="-1.64608">
1653<time>1111251831</time>
1654</trkpt>
1655<trkpt lat="50.9058" lon="-1.64561">
1656<time>1111251854</time>
1657</trkpt>
1658<trkpt lat="50.9058" lon="-1.6454">
1659<time>1111251884</time>
1660</trkpt>
1661<trkpt lat="50.9058" lon="-1.6457">
1662<time>1111251920</time>
1663</trkpt>
1664<trkpt lat="50.9059" lon="-1.64546">
1665<time>1111251936</time>
1666</trkpt>
1667<trkpt lat="50.9062" lon="-1.64516">
1668<time>1111251956</time>
1669</trkpt>
1670<trkpt lat="50.9062" lon="-1.6448">
1671<time>1111251973</time>
1672</trkpt>
1673<trkpt lat="50.906" lon="-1.64445">
1674<time>1111251993</time>
1675</trkpt>
1676<trkpt lat="50.9058" lon="-1.64392">
1677<time>1111252017</time>
1678</trkpt>
1679<trkpt lat="50.9058" lon="-1.64336">
1680<time>1111252039</time>
1681</trkpt>
1682<trkpt lat="50.9059" lon="-1.64286">
1683<time>1111252061</time>
1684</trkpt>
1685<trkpt lat="50.9061" lon="-1.64252">
1686<time>1111252082</time>
1687</trkpt>
1688<trkpt lat="50.9063" lon="-1.64224">
1689<time>1111252102</time>
1690</trkpt>
1691<trkpt lat="50.9067" lon="-1.64209">
1692<time>1111252127</time>
1693</trkpt>
1694<trkpt lat="50.9068" lon="-1.64209">
1695<time>1111252136</time>
1696</trkpt>
1697<trkpt lat="50.9069" lon="-1.64196">
1698<time>1111252143</time>
1699</trkpt>
1700<trkpt lat="50.9069" lon="-1.64175">
1701<time>1111252161</time>
1702</trkpt>
1703<trkpt lat="50.9069" lon="-1.6413">
1704<time>1111252179</time>
1705</trkpt>
1706<trkpt lat="50.9068" lon="-1.64089">
1707<time>1111252198</time>
1708</trkpt>
1709<trkpt lat="50.9066" lon="-1.64038">
1710<time>1111252220</time>
1711</trkpt>
1712<trkpt lat="50.9065" lon="-1.63992">
1713<time>1111252240</time>
1714</trkpt>
1715<trkpt lat="50.9063" lon="-1.63954">
1716<time>1111252259</time>
1717</trkpt>
1718<trkpt lat="50.9062" lon="-1.63913">
1719<time>1111252278</time>
1720</trkpt>
1721<trkpt lat="50.906" lon="-1.63868">
1722<time>1111252299</time>
1723</trkpt>
1724<trkpt lat="50.9059" lon="-1.63836">
1725<time>1111252316</time>
1726</trkpt>
1727<trkpt lat="50.9057" lon="-1.63801">
1728<time>1111252333</time>
1729</trkpt>
1730<trkpt lat="50.9054" lon="-1.63765">
1731<time>1111252355</time>
1732</trkpt>
1733<trkpt lat="50.9054" lon="-1.63761">
1734<time>1111252358</time>
1735</trkpt>
1736<trkpt lat="50.9053" lon="-1.63716">
1737<time>1111252379</time>
1738</trkpt>
1739<trkpt lat="50.9054" lon="-1.63668">
1740<time>1111252401</time>
1741</trkpt>
1742<trkpt lat="50.9054" lon="-1.63623">
1743<time>1111252421</time>
1744</trkpt>
1745<trkpt lat="50.9054" lon="-1.63574">
1746<time>1111252443</time>
1747</trkpt>
1748<trkpt lat="50.9054" lon="-1.63535">
1749<time>1111252461</time>
1750</trkpt>
1751<trkpt lat="50.9055" lon="-1.63492">
1752<time>1111252482</time>
1753</trkpt>
1754<trkpt lat="50.9055" lon="-1.63488">
1755<time>1111252494</time>
1756</trkpt>
1757<trkpt lat="50.9055" lon="-1.63477">
1758<time>1111252500</time>
1759</trkpt>
1760<trkpt lat="50.9055" lon="-1.6343">
1761<time>1111252521</time>
1762</trkpt>
1763<trkpt lat="50.9057" lon="-1.63387">
1764<time>1111252541</time>
1765</trkpt>
1766<trkpt lat="50.9058" lon="-1.63342">
1767<time>1111252562</time>
1768</trkpt>
1769<trkpt lat="50.9059" lon="-1.63319">
1770<time>1111252582</time>
1771</trkpt>
1772<trkpt lat="50.9059" lon="-1.63312">
1773<time>1111252651</time>
1774</trkpt>
1775<trkpt lat="50.906" lon="-1.63282">
1776<time>1111252668</time>
1777</trkpt>
1778<trkpt lat="50.9061" lon="-1.63267">
1779<time>1111252684</time>
1780</trkpt>
1781<trkpt lat="50.9062" lon="-1.6322">
1782<time>1111252745</time>
1783</trkpt>
1784<trkpt lat="50.9063" lon="-1.6316">
1785<time>1111252764</time>
1786</trkpt>
1787<trkpt lat="50.9064" lon="-1.63108">
1788<time>1111252782</time>
1789</trkpt>
1790<trkpt lat="50.9065" lon="-1.63057">
1791<time>1111252803</time>
1792</trkpt>
1793<trkpt lat="50.9066" lon="-1.63018">
1794<time>1111252821</time>
1795</trkpt>
1796<trkpt lat="50.9066" lon="-1.62993">
1797<time>1111252839</time>
1798</trkpt>
1799<trkpt lat="50.9068" lon="-1.6295">
1800<time>1111252858</time>
1801</trkpt>
1802<trkpt lat="50.9068" lon="-1.62924">
1803<time>1111252876</time>
1804</trkpt>
1805<trkpt lat="50.9068" lon="-1.62907">
1806<time>1111252914</time>
1807</trkpt>
1808<trkpt lat="50.9068" lon="-1.62907">
1809<time>1111252938</time>
1810</trkpt>
1811<trkpt lat="50.9069" lon="-1.62877">
1812<time>1111252974</time>
1813</trkpt>
1814<trkpt lat="50.9069" lon="-1.62866">
1815<time>1111252991</time>
1816</trkpt>
1817<trkpt lat="50.9071" lon="-1.6281">
1818<time>1111253013</time>
1819</trkpt>
1820<trkpt lat="50.9072" lon="-1.62761">
1821<time>1111253033</time>
1822</trkpt>
1823<trkpt lat="50.9073" lon="-1.62711">
1824<time>1111253054</time>
1825</trkpt>
1826<trkpt lat="50.9074" lon="-1.62664">
1827<time>1111253075</time>
1828</trkpt>
1829<trkpt lat="50.9075" lon="-1.62621">
1830<time>1111253094</time>
1831</trkpt>
1832<trkpt lat="50.9076" lon="-1.62587">
1833<time>1111253111</time>
1834</trkpt>
1835<trkpt lat="50.9076" lon="-1.62587">
1836<time>1111253116</time>
1837</trkpt>
1838<trkpt lat="50.9077" lon="-1.62589">
1839<time>1111253137</time>
1840</trkpt>
1841<trkpt lat="50.9077" lon="-1.62589">
1842<time>1111253197</time>
1843</trkpt>
1844<trkpt lat="50.9077" lon="-1.62596">
1845<time>1111253243</time>
1846</trkpt>
1847<trkpt lat="50.9077" lon="-1.62593">
1848<time>1111253254</time>
1849</trkpt>
1850<trkpt lat="50.9076" lon="-1.62581">
1851<time>1111253260</time>
1852</trkpt>
1853<trkpt lat="50.9077" lon="-1.62529">
1854<time>1111253281</time>
1855</trkpt>
1856<trkpt lat="50.9077" lon="-1.62493">
1857<time>1111253295</time>
1858</trkpt>
1859<trkpt lat="50.9077" lon="-1.62445">
1860<time>1111253314</time>
1861</trkpt>
1862<trkpt lat="50.9077" lon="-1.62392">
1863<time>1111253335</time>
1864</trkpt>
1865<trkpt lat="50.9077" lon="-1.62345">
1866<time>1111253355</time>
1867</trkpt>
1868<trkpt lat="50.9078" lon="-1.62291">
1869<time>1111253377</time>
1870</trkpt>
1871<trkpt lat="50.9078" lon="-1.62231">
1872<time>1111253403</time>
1873</trkpt>
1874<trkpt lat="50.9078" lon="-1.62194">
1875<time>1111253420</time>
1876</trkpt>
1877<trkpt lat="50.9077" lon="-1.62145">
1878<time>1111253443</time>
1879</trkpt>
1880<trkpt lat="50.9075" lon="-1.62098">
1881<time>1111253465</time>
1882</trkpt>
1883<trkpt lat="50.9073" lon="-1.62051">
1884<time>1111253489</time>
1885</trkpt>
1886<trkpt lat="50.907" lon="-1.6202">
1887<time>1111253513</time>
1888</trkpt>
1889<trkpt lat="50.9067" lon="-1.62016">
1890<time>1111253538</time>
1891</trkpt>
1892<trkpt lat="50.9066" lon="-1.62014">
1893<time>1111253570</time>
1894</trkpt>
1895<trkpt lat="50.9063" lon="-1.62014">
1896<time>1111253589</time>
1897</trkpt>
1898<trkpt lat="50.9061" lon="-1.62012">
1899<time>1111253611</time>
1900</trkpt>
1901<trkpt lat="50.9061" lon="-1.6201">
1902<time>1111253612</time>
1903</trkpt>
1904<trkpt lat="50.9061" lon="-1.61958">
1905<time>1111253633</time>
1906</trkpt>
1907<trkpt lat="50.9061" lon="-1.61905">
1908<time>1111253655</time>
1909</trkpt>
1910<trkpt lat="50.9061" lon="-1.61855">
1911<time>1111253676</time>
1912</trkpt>
1913<trkpt lat="50.906" lon="-1.61806">
1914<time>1111253699</time>
1915</trkpt>
1916<trkpt lat="50.9058" lon="-1.61765">
1917<time>1111253723</time>
1918</trkpt>
1919<trkpt lat="50.9056" lon="-1.61722">
1920<time>1111253749</time>
1921</trkpt>
1922<trkpt lat="50.9054" lon="-1.61679">
1923<time>1111253770</time>
1924</trkpt>
1925<trkpt lat="50.9052" lon="-1.61645">
1926<time>1111253790</time>
1927</trkpt>
1928<trkpt lat="50.9051" lon="-1.61589">
1929<time>1111253816</time>
1930</trkpt>
1931<trkpt lat="50.9049" lon="-1.6157">
1932<time>1111253832</time>
1933</trkpt>
1934<trkpt lat="50.9046" lon="-1.61542">
1935<time>1111253856</time>
1936</trkpt>
1937<trkpt lat="50.9043" lon="-1.61508">
1938<time>1111253880</time>
1939</trkpt>
1940<trkpt lat="50.9041" lon="-1.61495">
1941<time>1111253891</time>
1942</trkpt>
1943<trkpt lat="50.9038" lon="-1.61463">
1944<time>1111253919</time>
1945</trkpt>
1946<trkpt lat="50.9036" lon="-1.61428">
1947<time>1111253938</time>
1948</trkpt>
1949<trkpt lat="50.9033" lon="-1.614">
1950<time>1111253964</time>
1951</trkpt>
1952<trkpt lat="50.9032" lon="-1.61398">
1953<time>1111253970</time>
1954</trkpt>
1955<trkpt lat="50.9028" lon="-1.6139">
1956<time>1111253992</time>
1957</trkpt>
1958<trkpt lat="50.9026" lon="-1.61342">
1959<time>1111254015</time>
1960</trkpt>
1961<trkpt lat="50.9025" lon="-1.61297">
1962<time>1111254038</time>
1963</trkpt>
1964<trkpt lat="50.9024" lon="-1.6128">
1965<time>1111254056</time>
1966</trkpt>
1967<trkpt lat="50.9024" lon="-1.6122">
1968<time>1111254081</time>
1969</trkpt>
1970<trkpt lat="50.9024" lon="-1.6116">
1971<time>1111254102</time>
1972</trkpt>
1973<trkpt lat="50.9025" lon="-1.61098">
1974<time>1111254124</time>
1975</trkpt>
1976<trkpt lat="50.9025" lon="-1.61085">
1977<time>1111254129</time>
1978</trkpt>
1979</trkseg>
1980</trk>
1981</gpx>
Note: See TracBrowser for help on using the repository browser.